createdAt,value
2019-04-20T00:01:35.655Z,140.65
2019-04-20T00:03:45.641Z,139.25
2019-04-20T00:05:53.656Z,127.70
2019-04-20T00:08:08.919Z,121.02
2019-04-20T00:10:16.988Z,129.72
2019-04-20T00:12:34.237Z,132.37
2019-04-20T00:14:33.862Z,129.20
2019-04-20T00:16:39.976Z,138.88
2019-04-20T00:18:53.187Z,132.03
2019-04-20T00:21:05.543Z,132.82
2019-04-20T00:23:19.739Z,117.08
2019-04-20T00:25:52.201Z,124.50
2019-04-20T00:28:19.796Z,131.78
2019-04-20T00:30:31.435Z,131.80
2019-04-20T00:32:40.041Z,122.05
2019-04-20T00:34:37.214Z,122.37
2019-04-20T00:36:43.308Z,114.60
2019-04-20T00:38:56.134Z,120.97
2019-04-20T00:41:05.639Z,122.25
2019-04-20T00:43:13.221Z,122.75
2019-04-20T00:45:25.566Z,103.65
2019-04-20T00:47:42.999Z,106.15
2019-04-20T00:49:52.284Z,120.65
2019-04-20T00:52:18.835Z,96.10
2019-04-20T00:54:01.873Z,114.92
2019-04-20T00:56:10.187Z,116.85
2019-04-20T00:58:27.040Z,99.50
2019-04-20T01:00:48.488Z,109.60
2019-04-20T01:02:50.738Z,82.95
2019-04-20T01:05:04.021Z,99.37
2019-04-20T01:07:14.002Z,85.75
2019-04-20T01:09:14.069Z,89.87
2019-04-20T01:11:27.299Z,90.57
2019-04-20T01:13:31.842Z,86.22
2019-04-20T01:15:48.817Z,78.45
2019-04-20T01:18:07.426Z,88.60
2019-04-20T01:20:16.840Z,80.53
2019-04-20T01:22:28.584Z,75.47
2019-04-20T01:24:40.471Z,86.63
2019-04-20T01:26:50.637Z,79.95
2019-04-20T01:29:08.925Z,80.17
2019-04-20T01:31:15.700Z,78.12
2019-04-20T01:33:30.082Z,83.25
2019-04-20T01:35:39.597Z,83.87
2019-04-20T01:37:46.959Z,86.35
2019-04-20T01:39:48.729Z,84.85
2019-04-20T01:41:52.025Z,85.80
2019-04-20T01:44:00.516Z,87.78
2019-04-20T01:46:15.635Z,87.65
2019-04-20T01:48:22.908Z,78.15
2019-04-20T01:50:33.002Z,86.20
2019-04-20T01:52:50.801Z,83.78
2019-04-20T01:55:13.772Z,85.83
2019-04-20T01:57:12.814Z,93.45
2019-04-20T01:59:22.992Z,89.03
2019-04-20T02:01:42.480Z,86.47
2019-04-20T02:03:55.439Z,101.18
2019-04-20T02:06:11.670Z,89.20
2019-04-20T02:08:20.720Z,89.28
2019-04-20T02:10:37.013Z,93.45
2019-04-20T02:12:39.562Z,93.55
2019-04-20T02:14:52.460Z,86.22
2019-04-20T02:17:06.591Z,89.83
2019-04-20T02:19:22.920Z,93.12
2019-04-20T02:21:34.263Z,96.87
2019-04-20T02:23:35.697Z,91.12
2019-04-20T02:25:35.681Z,101.70
2019-04-20T02:27:50.279Z,92.53
2019-04-20T02:30:21.667Z,83.12
2019-04-20T02:33:27.301Z,58.10
2019-04-20T02:34:48.659Z,56.85
2019-04-20T02:37:28.802Z,56.18
2019-04-20T02:39:37.546Z,57.75
2019-04-20T02:41:44.665Z,63.08
2019-04-20T02:43:59.774Z,91.20
2019-04-20T02:45:55.084Z,100.30
2019-04-20T02:48:10.039Z,105.17
2019-04-20T02:52:33.133Z,104.10
2019-04-20T02:56:47.692Z,104.78
2019-04-20T02:59:02.077Z,99.90
2019-04-20T03:00:57.139Z,96.22
2019-04-20T03:02:53.432Z,94.42
2019-04-20T03:05:02.570Z,85.97
2019-04-20T03:07:15.633Z,99.95
2019-04-20T03:09:32.544Z,112.30
2019-04-20T03:11:51.392Z,115.77
2019-04-20T03:13:48.777Z,99.10
2019-04-20T03:16:01.882Z,93.50
2019-04-20T03:18:08.814Z,92.37
2019-04-20T03:20:23.198Z,88.92
2019-04-20T03:22:46.533Z,78.33
2019-04-20T03:24:43.687Z,69.67
2019-04-20T03:26:55.655Z,75.00
2019-04-20T03:29:01.825Z,74.65
2019-04-20T03:33:51.683Z,58.25
2019-04-20T03:35:36.846Z,61.92
2019-04-20T03:37:48.521Z,68.47
2019-04-20T03:39:47.684Z,64.97
2019-04-20T03:41:48.518Z,68.62
2019-04-20T03:44:00.899Z,58.52
2019-04-20T03:46:10.655Z,47.98
2019-04-20T03:48:34.581Z,55.00
2019-04-20T03:50:46.321Z,52.85
2019-04-20T03:53:03.916Z,61.42
2019-04-20T03:55:39.736Z,58.40
2019-04-20T03:57:43.760Z,56.55
2019-04-20T03:59:50.871Z,52.83
2019-04-20T04:02:23.852Z,55.17
2019-04-20T04:04:15.020Z,55.23
2019-04-20T04:06:17.740Z,56.85
2019-04-20T04:08:28.384Z,54.77
2019-04-20T04:10:44.427Z,57.83
2019-04-20T04:13:12.172Z,57.30
2019-04-20T04:15:20.933Z,53.70
2019-04-20T04:17:33.817Z,57.70
2019-04-20T04:19:44.809Z,56.23
2019-04-20T04:22:04.100Z,55.35
2019-04-20T04:24:10.654Z,57.62
2019-04-20T04:26:26.146Z,60.90
2019-04-20T04:28:37.388Z,55.35
2019-04-20T04:30:40.576Z,60.63
2019-04-20T04:33:22.380Z,56.23
2019-04-20T04:35:01.656Z,51.40
2019-04-20T04:37:16.494Z,57.45
2019-04-20T04:39:31.020Z,60.38
2019-04-20T04:41:36.445Z,57.10
2019-04-20T04:43:48.066Z,60.43
2019-04-20T04:45:36.955Z,57.15
2019-04-20T04:47:45.364Z,65.65
2019-04-20T04:50:00.704Z,55.28
2019-04-20T04:52:07.973Z,65.67
2019-04-20T04:54:21.593Z,61.08
2019-04-20T04:56:23.841Z,65.45
2019-04-20T04:58:31.900Z,69.47
2019-04-20T05:00:40.829Z,70.85
2019-04-20T05:02:53.891Z,62.43
2019-04-20T05:05:31.365Z,59.50
2019-04-20T05:07:38.760Z,60.55
2019-04-20T05:09:37.913Z,64.17
2019-04-20T05:12:05.496Z,57.90
2019-04-20T05:14:13.558Z,55.73
2019-04-20T05:16:40.093Z,61.95
2019-04-20T05:18:55.467Z,59.00
2019-04-20T05:20:58.785Z,52.70
2019-04-20T05:23:07.716Z,54.58
2019-04-20T05:25:33.132Z,49.58
2019-04-20T05:27:47.919Z,59.13
2019-04-20T05:29:38.151Z,60.70
2019-04-20T05:31:51.787Z,60.92
2019-04-20T05:34:20.296Z,53.23
2019-04-20T05:36:23.128Z,60.60
2019-04-20T05:38:41.907Z,63.63
2019-04-20T05:40:47.695Z,63.15
2019-04-20T05:42:54.383Z,66.67
2019-04-20T05:45:05.564Z,73.83
2019-04-20T05:47:15.828Z,65.67
2019-04-20T05:49:28.397Z,68.15
2019-04-20T05:51:37.992Z,65.00
2019-04-20T05:53:48.821Z,65.50
2019-04-20T05:55:48.855Z,67.25
2019-04-20T05:58:08.915Z,73.40
2019-04-20T06:00:17.342Z,68.78
2019-04-20T06:02:22.650Z,72.25
2019-04-20T06:04:46.359Z,72.70
2019-04-20T06:06:47.671Z,72.82
2019-04-20T06:08:59.534Z,72.25
2019-04-20T06:11:06.266Z,69.92
2019-04-20T06:13:13.088Z,64.07
2019-04-20T06:15:39.283Z,66.30
2019-04-20T06:18:02.399Z,68.07
2019-04-20T06:20:15.552Z,65.20
2019-04-20T06:22:30.828Z,60.55
2019-04-20T06:24:46.886Z,64.65
2019-04-20T06:26:53.853Z,62.33
2019-04-20T06:28:54.058Z,65.90
2019-04-20T06:31:12.300Z,64.77
2019-04-20T06:34:27.983Z,67.75
2019-04-20T06:36:29.216Z,63.90
2019-04-20T06:38:48.333Z,59.50
2019-04-20T06:42:48.257Z,64.67
2019-04-20T06:45:05.720Z,65.37
2019-04-20T06:47:24.983Z,60.85
2019-04-20T06:51:36.855Z,40.10
2019-04-20T06:53:47.035Z,38.28
2019-04-20T06:56:07.118Z,37.38
2019-04-20T06:58:12.634Z,23.98
2019-04-20T07:00:18.032Z,27.40
2019-04-20T07:02:38.650Z,22.73
2019-04-20T07:09:00.711Z,26.23
2019-04-20T07:11:10.600Z,24.67
2019-04-20T07:13:07.726Z,18.75
2019-04-20T07:15:22.631Z,23.38
2019-04-20T07:19:50.054Z,11.48
2019-04-20T07:22:25.313Z,14.75
2019-04-20T07:24:38.596Z,12.30
2019-04-20T07:26:44.323Z,14.53
2019-04-20T07:28:56.797Z,16.73
2019-04-20T07:30:57.019Z,15.20
2019-04-20T07:33:16.678Z,16.73
2019-04-20T07:35:19.645Z,14.18
2019-04-20T07:39:40.647Z,14.68
2019-04-20T07:41:54.594Z,15.90
2019-04-20T07:44:21.758Z,15.03
2019-04-20T07:46:09.335Z,14.47
2019-04-20T07:48:21.241Z,15.70
2019-04-20T07:50:25.116Z,15.32
2019-04-20T07:52:36.680Z,15.58
2019-04-20T07:55:15.245Z,14.30
2019-04-20T07:57:00.391Z,15.03
2019-04-20T07:58:55.228Z,15.58
2019-04-20T08:01:48.645Z,14.95
2019-04-20T08:03:51.436Z,16.45
2019-04-20T08:06:01.497Z,14.75
2019-04-20T08:08:18.097Z,15.50
2019-04-20T08:10:12.249Z,19.50
2019-04-20T08:12:51.626Z,12.50
2019-04-20T08:14:56.793Z,17.77
2019-04-20T08:17:14.226Z,12.30
2019-04-20T08:19:09.979Z,14.73
2019-04-20T08:21:23.298Z,14.53
2019-04-20T08:23:28.536Z,17.80
2019-04-20T08:25:34.919Z,15.90
2019-04-20T08:27:48.790Z,16.23
2019-04-20T08:30:33.991Z,16.42
2019-04-20T08:32:58.275Z,14.40
2019-04-20T08:35:14.361Z,13.98
2019-04-20T08:37:23.452Z,14.73
2019-04-20T08:39:48.156Z,13.10
2019-04-20T08:41:45.128Z,17.55
2019-04-20T08:44:06.440Z,10.88
2019-04-20T08:46:05.626Z,10.55
2019-04-20T08:48:18.637Z,8.68
2019-04-20T08:50:24.902Z,10.20
2019-04-20T08:52:55.507Z,9.15
2019-04-20T08:54:34.393Z,9.18
2019-04-20T08:56:38.984Z,8.88
2019-04-20T08:58:41.567Z,7.62
2019-04-20T09:00:57.861Z,5.80
2019-04-20T09:03:12.151Z,4.58
2019-04-20T09:05:29.462Z,4.87
2019-04-20T09:07:25.141Z,7.58
2019-04-20T09:09:56.442Z,6.78
2019-04-20T09:12:02.819Z,7.87
2019-04-20T09:13:55.703Z,9.10
2019-04-20T09:16:02.010Z,7.45
2019-04-20T09:18:21.372Z,11.43
2019-04-20T09:20:31.732Z,8.30
2019-04-20T09:22:49.429Z,8.58
2019-04-20T09:25:07.462Z,9.23
2019-04-20T09:27:14.287Z,10.35
2019-04-20T09:29:21.932Z,9.45
2019-04-20T09:31:43.651Z,7.75
2019-04-20T09:33:55.672Z,7.78
2019-04-20T09:36:06.647Z,7.35
2019-04-20T09:38:14.409Z,7.85
2019-04-20T09:40:30.632Z,10.30
2019-04-20T09:42:24.409Z,9.08
2019-04-20T09:44:37.537Z,12.10
2019-04-20T09:46:46.042Z,10.28
2019-04-20T09:48:57.935Z,10.95
2019-04-20T09:51:21.990Z,7.47
2019-04-20T09:53:24.549Z,9.83
2019-04-20T09:55:35.805Z,8.40
2019-04-20T09:57:49.957Z,10.53
2019-04-20T10:00:04.269Z,8.23
2019-04-20T10:02:02.138Z,10.82
2019-04-20T10:04:01.489Z,9.55
2019-04-20T10:06:09.700Z,7.33
2019-04-20T10:08:17.727Z,8.75
2019-04-20T10:10:32.291Z,13.30
2019-04-20T10:12:35.665Z,12.45
2019-04-20T10:14:44.816Z,8.48
2019-04-20T10:16:53.794Z,12.30
2019-04-20T10:19:02.801Z,10.50
2019-04-20T10:21:11.876Z,11.88
2019-04-20T10:23:20.712Z,11.97
2019-04-20T10:25:28.770Z,8.43
2019-04-20T10:27:36.800Z,10.23
2019-04-20T10:29:45.842Z,10.13
2019-04-20T10:31:58.518Z,9.78
2019-04-20T10:34:04.927Z,8.68
2019-04-20T10:36:15.554Z,8.38
2019-04-20T10:38:23.363Z,9.10
2019-04-20T10:40:45.023Z,10.03
2019-04-20T10:42:41.837Z,12.68
2019-04-20T10:44:52.234Z,11.85
2019-04-20T10:47:00.748Z,12.75
2019-04-20T10:49:09.667Z,12.65
2019-04-20T10:51:19.814Z,9.30
2019-04-20T10:53:27.974Z,9.68
2019-04-20T10:55:35.992Z,11.35
2019-04-20T10:57:43.911Z,9.70
2019-04-20T10:59:52.865Z,11.97
2019-04-20T11:02:01.560Z,14.23
2019-04-20T11:04:10.553Z,10.78
2019-04-20T11:06:18.661Z,10.43
2019-04-20T11:08:26.655Z,8.10
2019-04-20T11:10:49.389Z,13.83
2019-04-20T11:12:44.338Z,8.90
2019-04-20T11:14:54.450Z,11.73
2019-04-20T11:17:02.682Z,13.18
2019-04-20T11:19:11.621Z,12.88
2019-04-20T11:21:19.714Z,16.90
2019-04-20T11:23:28.646Z,13.43
2019-04-20T11:25:37.898Z,13.50
2019-04-20T11:27:46.053Z,15.08
2019-04-20T11:29:54.103Z,13.85
2019-04-20T11:32:03.141Z,15.58
2019-04-20T11:34:14.943Z,13.25
2019-04-20T11:36:21.259Z,12.43
2019-04-20T11:38:30.207Z,12.70
2019-04-20T11:40:39.342Z,12.82
2019-04-20T11:42:47.940Z,12.55
2019-04-20T11:44:57.137Z,18.27
2019-04-20T11:47:06.433Z,12.98
2019-04-20T11:49:15.433Z,11.73
2019-04-20T11:51:23.451Z,12.70
2019-04-20T11:53:32.247Z,11.83
2019-04-20T11:55:40.469Z,16.97
2019-04-20T11:57:49.425Z,12.07
2019-04-20T11:59:57.521Z,15.08
2019-04-20T12:02:25.036Z,10.93
2019-04-20T12:04:42.032Z,12.33
2019-04-20T12:06:43.895Z,10.05
2019-04-20T12:08:52.992Z,11.95
2019-04-20T12:11:12.044Z,12.70
2019-04-20T12:13:13.350Z,9.95
2019-04-20T12:15:19.877Z,11.50
2019-04-20T12:17:27.801Z,13.35
2019-04-20T12:19:36.317Z,12.10
2019-04-20T12:21:47.576Z,11.97
2019-04-20T12:23:56.210Z,10.38
2019-04-20T12:26:04.892Z,11.50
2019-04-20T12:28:13.691Z,10.43
2019-04-20T12:30:23.958Z,9.58
2019-04-20T12:32:36.408Z,11.60
2019-04-20T12:34:41.370Z,11.55
2019-04-20T12:36:49.213Z,7.90
2019-04-20T12:38:57.233Z,9.53
2019-04-20T12:41:07.478Z,9.68
2019-04-20T12:43:15.179Z,10.72
2019-04-20T12:45:25.860Z,8.40
2019-04-20T12:47:33.739Z,12.53
2019-04-20T12:49:41.459Z,7.08
2019-04-20T12:51:54.607Z,10.10
2019-04-20T12:54:00.550Z,8.60
2019-04-20T12:56:08.761Z,7.60
2019-04-20T12:58:16.774Z,9.25
2019-04-20T13:00:29.750Z,12.45
2019-04-20T13:02:37.708Z,6.92
2019-04-20T13:04:45.739Z,7.67
2019-04-20T13:06:55.369Z,6.17
2019-04-20T13:09:05.768Z,7.97
2019-04-20T13:11:16.857Z,6.62
2019-04-20T13:13:32.469Z,8.35
2019-04-20T13:15:42.806Z,10.80
2019-04-20T13:17:52.465Z,6.58
2019-04-20T13:20:00.176Z,8.88
2019-04-20T13:22:07.960Z,6.75
2019-04-20T13:24:16.717Z,6.78
2019-04-20T13:26:25.106Z,8.40
2019-04-20T13:28:32.964Z,6.78
2019-04-20T13:30:41.922Z,11.85
2019-04-20T13:32:50.395Z,9.83
2019-04-20T13:35:00.374Z,7.40
2019-04-20T13:37:08.501Z,7.90
2019-04-20T13:39:16.575Z,6.78
2019-04-20T13:41:25.650Z,7.85
2019-04-20T13:43:33.502Z,6.30
2019-04-20T13:45:42.649Z,14.23
2019-04-20T13:47:50.917Z,6.10
2019-04-20T13:49:58.917Z,6.45
2019-04-20T13:52:06.820Z,5.20
2019-04-20T13:54:18.037Z,6.87
2019-04-20T13:56:25.868Z,6.80
2019-04-20T13:58:51.881Z,9.95
2019-04-20T14:01:18.837Z,6.62
2019-04-20T14:03:29.986Z,6.85
2019-04-20T14:05:38.529Z,9.33
2019-04-20T14:07:47.272Z,4.97
2019-04-20T14:09:57.465Z,4.47
2019-04-20T14:12:19.390Z,4.55
2019-04-20T14:14:15.273Z,6.03
2019-04-20T14:16:23.412Z,6.10
2019-04-20T14:18:31.257Z,8.63
2019-04-20T14:20:40.292Z,5.58
2019-04-20T14:22:49.173Z,5.72
2019-04-20T14:24:57.962Z,7.05
2019-04-20T14:27:06.560Z,8.78
2019-04-20T14:29:14.839Z,5.90
2019-04-20T14:31:23.812Z,7.50
2019-04-20T14:33:33.079Z,8.78
2019-04-20T14:35:40.956Z,5.75
2019-04-20T14:37:50.149Z,7.28
2019-04-20T14:39:58.508Z,5.95
2019-04-20T14:42:06.652Z,6.60
2019-04-20T14:44:16.131Z,7.87
2019-04-20T14:46:26.338Z,5.55
2019-04-20T14:48:34.486Z,5.37
2019-04-20T14:50:43.422Z,5.95
2019-04-20T14:52:53.418Z,7.87
2019-04-20T14:55:01.789Z,8.55
2019-04-20T14:57:11.707Z,5.03
2019-04-20T14:59:25.333Z,4.03
2019-04-20T15:01:36.495Z,3.35
2019-04-20T15:03:45.463Z,5.92
2019-04-20T15:05:59.875Z,4.37
2019-04-20T15:08:08.924Z,7.22
2019-04-20T15:10:16.981Z,8.23
2019-04-20T15:12:37.858Z,9.68
2019-04-20T15:14:36.618Z,5.33
2019-04-20T15:16:44.618Z,5.05
2019-04-20T15:18:56.463Z,8.00
2019-04-20T15:21:13.562Z,8.08
2019-04-20T15:23:23.633Z,8.88
2019-04-20T15:25:31.728Z,8.68
2019-04-20T15:27:44.011Z,7.15
2019-04-20T15:29:49.030Z,8.45
2019-04-20T15:31:57.154Z,7.00
2019-04-20T15:34:05.136Z,8.58
2019-04-20T15:36:13.803Z,10.10
2019-04-20T15:38:24.971Z,5.85
2019-04-20T15:40:33.133Z,3.80
2019-04-20T15:42:56.607Z,4.70
2019-04-20T15:44:57.797Z,8.70
2019-04-20T15:47:09.037Z,26.27
2019-04-20T15:49:17.955Z,9.30
2019-04-20T15:51:25.895Z,12.55
2019-04-20T15:53:35.507Z,9.65
2019-04-20T15:55:45.246Z,10.00
2019-04-20T15:57:53.518Z,13.13
2019-04-20T16:00:02.652Z,9.48
2019-04-20T16:02:21.040Z,7.30
2019-04-20T16:04:48.575Z,10.13
2019-04-20T16:06:56.987Z,8.08
2019-04-20T16:09:08.350Z,12.23
2019-04-20T16:11:19.241Z,9.55
2019-04-20T16:13:35.078Z,8.75
2019-04-20T16:15:37.894Z,5.75
2019-04-20T16:17:49.138Z,12.90
2019-04-20T16:20:02.907Z,6.87
2019-04-20T16:22:05.947Z,4.22
2019-04-20T16:24:15.095Z,7.90
2019-04-20T16:26:25.905Z,9.48
2019-04-20T16:28:35.372Z,7.97
2019-04-20T16:30:43.570Z,11.28
2019-04-20T16:32:52.590Z,7.15
2019-04-20T16:35:02.760Z,8.85
2019-04-20T16:37:12.285Z,9.60
2019-04-20T16:39:20.522Z,8.40
2019-04-20T16:41:28.541Z,5.70
2019-04-20T16:43:41.070Z,9.23
2019-04-20T16:45:47.398Z,7.42
2019-04-20T16:47:55.420Z,10.40
2019-04-20T16:50:04.951Z,4.55
2019-04-20T16:52:12.853Z,10.80
2019-04-20T16:54:22.090Z,7.53
2019-04-20T16:56:30.751Z,7.15
2019-04-20T16:58:39.954Z,14.07
2019-04-20T17:00:47.868Z,10.50
2019-04-20T17:02:58.192Z,11.25
2019-04-20T17:05:07.252Z,11.18
2019-04-20T17:07:16.540Z,9.78
2019-04-20T17:09:26.105Z,11.48
2019-04-20T17:11:36.164Z,11.60
2019-04-20T17:13:49.675Z,15.32
2019-04-20T17:15:55.353Z,14.70
2019-04-20T17:18:03.576Z,14.20
2019-04-20T17:20:13.770Z,14.60
2019-04-20T17:22:23.413Z,15.05
2019-04-20T17:24:31.437Z,15.25
2019-04-20T17:26:45.249Z,14.20
2019-04-20T17:29:10.595Z,22.13
2019-04-20T17:31:23.243Z,15.10
2019-04-20T17:33:46.468Z,15.43
2019-04-20T17:35:53.149Z,9.40
2019-04-20T17:37:53.588Z,12.20
2019-04-20T17:40:18.746Z,12.90
2019-04-20T17:42:25.054Z,15.30
2019-04-20T17:44:37.245Z,11.60
2019-04-20T17:46:41.300Z,8.78
2019-04-20T17:48:59.538Z,10.75
2019-04-20T17:51:14.181Z,15.13
2019-04-20T17:53:14.460Z,14.90
2019-04-20T17:55:22.897Z,12.88
2019-04-20T17:57:21.963Z,12.47
2019-04-20T17:59:30.481Z,19.48
2019-04-20T18:02:02.167Z,11.63
2019-04-20T18:04:27.555Z,14.58
2019-04-20T18:06:27.179Z,16.87
2019-04-20T18:08:45.495Z,14.55
2019-04-20T18:10:50.016Z,11.93
2019-04-20T18:12:44.899Z,14.65
2019-04-20T18:15:10.209Z,12.47
2019-04-20T18:17:30.505Z,12.10
2019-04-20T18:19:31.292Z,12.45
2019-04-20T18:21:43.426Z,14.65
2019-04-20T18:23:51.883Z,14.23
2019-04-20T18:26:24.145Z,18.42
2019-04-20T18:28:20.843Z,14.98
2019-04-20T18:30:39.150Z,17.00
2019-04-20T18:32:38.336Z,15.05
2019-04-20T18:34:53.029Z,17.12
2019-04-20T18:37:00.631Z,26.10
2019-04-20T18:39:13.233Z,21.30
2019-04-20T18:41:31.864Z,16.17
2019-04-20T18:43:30.984Z,14.03
2019-04-20T18:45:58.290Z,18.45
2019-04-20T18:48:08.620Z,18.35
2019-04-20T18:50:09.388Z,16.48
2019-04-20T18:52:09.338Z,16.42
2019-04-20T18:54:22.194Z,17.05
2019-04-20T18:56:33.016Z,16.95
2019-04-20T18:58:37.525Z,15.95
2019-04-20T19:00:51.440Z,16.87
2019-04-20T19:03:01.383Z,18.48
2019-04-20T19:05:08.690Z,16.45
2019-04-20T19:07:17.559Z,15.85
2019-04-20T19:09:30.109Z,15.90
2019-04-20T19:11:41.714Z,17.00
2019-04-20T19:13:49.839Z,17.55
2019-04-20T19:16:24.757Z,14.65
2019-04-20T19:18:45.298Z,14.03
2019-04-20T19:20:43.188Z,13.13
2019-04-20T19:22:52.351Z,15.23
2019-04-20T19:25:00.251Z,14.33
2019-04-20T19:27:12.063Z,10.18
2019-04-20T19:29:27.951Z,13.55
2019-04-20T19:31:42.631Z,16.73
2019-04-20T19:33:57.547Z,18.98
2019-04-20T19:35:55.736Z,14.07
2019-04-20T19:38:06.806Z,15.10
2019-04-20T19:40:19.199Z,15.23
2019-04-20T19:42:36.672Z,14.60
2019-04-20T19:44:44.978Z,13.70
2019-04-20T19:46:59.290Z,15.18
2019-04-20T19:48:59.547Z,22.70
2019-04-20T19:51:25.656Z,23.67
2019-04-20T19:53:30.364Z,21.45
2019-04-20T19:55:39.706Z,25.70
2019-04-20T19:57:45.161Z,28.20
2019-04-20T19:59:45.737Z,45.78
2019-04-20T20:01:49.951Z,60.60
2019-04-20T20:04:02.485Z,140.50
2019-04-20T20:06:12.045Z,175.32
2019-04-20T20:08:20.929Z,167.82
2019-04-20T20:10:30.318Z,158.57
2019-04-20T20:12:39.856Z,132.25
2019-04-20T20:14:49.506Z,114.82
2019-04-20T20:17:08.460Z,113.03
2019-04-20T20:19:12.066Z,96.50
2019-04-20T20:21:23.642Z,87.20
2019-04-20T20:23:25.856Z,89.35
2019-04-20T20:25:38.768Z,88.40
2019-04-20T20:27:51.219Z,146.55
2019-04-20T20:30:04.702Z,77.90
2019-04-20T20:32:15.623Z,141.12
2019-04-20T20:34:21.724Z,83.90
2019-04-20T20:36:30.783Z,86.72
2019-04-20T20:38:37.656Z,116.65
2019-04-20T20:40:54.855Z,92.60
2019-04-20T20:43:04.806Z,84.00
2019-04-20T20:45:14.602Z,82.55
2019-04-20T20:47:38.268Z,76.75
2019-04-20T20:49:40.223Z,76.50
2019-04-20T20:51:49.793Z,75.95
2019-04-20T20:53:51.316Z,82.67
2019-04-20T20:56:05.327Z,82.95
2019-04-20T20:58:08.490Z,83.92
2019-04-20T21:00:22.660Z,84.87
2019-04-20T21:02:30.115Z,67.55
2019-04-20T21:04:30.696Z,89.80
2019-04-20T21:06:38.555Z,87.75
2019-04-20T21:08:51.478Z,94.65
2019-04-20T21:10:56.590Z,52.88
2019-04-20T21:13:08.356Z,49.85
2019-04-20T21:15:20.345Z,33.95
2019-04-20T21:17:27.493Z,22.93
2019-04-20T21:19:52.493Z,12.68
2019-04-20T21:21:51.637Z,17.05
2019-04-20T21:24:00.430Z,17.85
2019-04-20T21:26:17.020Z,41.68
2019-04-20T21:28:20.668Z,53.83
2019-04-20T21:30:35.052Z,57.40
2019-04-20T21:32:43.465Z,42.95
2019-04-20T21:34:51.783Z,30.75
2019-04-20T21:37:03.505Z,35.83
2019-04-20T21:39:18.102Z,20.40
2019-04-20T21:41:22.533Z,12.78
2019-04-20T21:43:36.348Z,11.10
2019-04-20T21:45:49.784Z,15.05
2019-04-20T21:47:50.272Z,13.25
2019-04-20T21:50:19.999Z,10.20
2019-04-20T21:52:20.852Z,12.75
2019-04-20T21:54:18.271Z,12.35
2019-04-20T21:56:26.502Z,13.78
2019-04-20T21:58:41.630Z,12.35
2019-04-20T22:01:03.849Z,10.08
2019-04-20T22:03:07.445Z,11.38
2019-04-20T22:05:13.566Z,9.53
2019-04-20T22:07:22.811Z,13.53
2019-04-20T22:09:38.461Z,16.02
2019-04-20T22:11:41.991Z,22.00
2019-04-20T22:13:51.229Z,29.02
2019-04-20T22:16:05.215Z,31.30
2019-04-20T22:18:14.117Z,23.98
2019-04-20T22:20:28.800Z,28.38
2019-04-20T22:22:43.157Z,32.83
2019-04-20T22:24:52.354Z,33.25
2019-04-20T22:26:59.993Z,34.10
2019-04-20T22:28:58.504Z,45.52
2019-04-20T22:31:06.430Z,61.05
2019-04-20T22:33:31.382Z,68.70
2019-04-20T22:35:36.037Z,72.27
2019-04-20T22:37:53.199Z,63.70
2019-04-20T22:39:58.356Z,64.62
2019-04-20T22:42:11.488Z,82.50
2019-04-20T22:44:20.909Z,63.30
2019-04-20T22:46:31.769Z,57.48
2019-04-20T22:48:40.461Z,71.57
2019-04-20T22:51:10.173Z,65.87
2019-04-20T22:53:16.555Z,65.35
2019-04-20T22:55:27.091Z,73.10
2019-04-20T22:57:31.616Z,88.37
2019-04-20T22:59:38.397Z,75.37
2019-04-20T23:01:44.352Z,68.37
2019-04-20T23:03:46.252Z,64.00
2019-04-20T23:05:54.441Z,60.12
2019-04-20T23:08:04.559Z,65.28
2019-04-20T23:10:13.289Z,62.98
2019-04-20T23:12:23.754Z,72.37
2019-04-20T23:14:32.124Z,72.55
2019-04-20T23:16:43.909Z,68.87
2019-04-20T23:18:50.042Z,64.05
2019-04-20T23:21:02.437Z,63.85
2019-04-20T23:23:12.405Z,63.28
2019-04-20T23:25:17.547Z,64.03
2019-04-20T23:27:31.243Z,54.55
2019-04-20T23:29:38.340Z,52.53
2019-04-20T23:31:50.656Z,55.30
2019-04-20T23:33:56.135Z,53.38
2019-04-20T23:36:05.047Z,45.67
2019-04-20T23:38:17.980Z,49.08
2019-04-20T23:40:23.665Z,43.60
2019-04-20T23:42:42.782Z,46.23
2019-04-20T23:45:09.300Z,51.23
2019-04-20T23:47:23.719Z,38.63
2019-04-20T23:49:53.811Z,40.35
2019-04-20T23:52:05.486Z,49.45
2019-04-20T23:54:04.671Z,44.65
2019-04-20T23:56:03.759Z,44.35
2019-04-20T23:58:14.106Z,46.88
